sensor_id;sensor_type;location;lat;lon;timestamp;pressure;altitude;pressure_sealevel;temperature;humidity
51528;BME280;37612;51.768;21.590;2022-08-01T00:00:37;99558.36;;;14.69;100.00
51528;BME280;37612;51.768;21.590;2022-08-01T00:04:43;99555.53;;;14.67;100.00
51528;BME280;37612;51.768;21.590;2022-08-01T00:08:44;99557.20;;;14.66;100.00
51528;BME280;37612;51.768;21.590;2022-08-01T00:12:45;99559.45;;;14.63;100.00
51528;BME280;37612;51.768;21.590;2022-08-01T00:16:47;99552.94;;;14.64;100.00
51528;BME280;37612;51.768;21.590;2022-08-01T00:20:48;99553.48;;;14.64;100.00
51528;BME280;37612;51.768;21.590;2022-08-01T00:24:49;99556.95;;;14.65;100.00
51528;BME280;37612;51.768;21.590;2022-08-01T00:28:50;99556.57;;;14.65;100.00
51528;BME280;37612;51.768;21.590;2022-08-01T00:32:51;99554.58;;;14.65;100.00
51528;BME280;37612;51.768;21.590;2022-08-01T00:36:52;99553.20;;;14.69;100.00
51528;BME280;37612;51.768;21.590;2022-08-01T00:40:54;99551.64;;;14.69;100.00
51528;BME280;37612;51.768;21.590;2022-08-01T00:44:55;99551.05;;;14.68;100.00
51528;BME280;37612;51.768;21.590;2022-08-01T00:48:57;99554.39;;;14.67;100.00
51528;BME280;37612;51.768;21.590;2022-08-01T00:52:58;99560.61;;;14.66;100.00
51528;BME280;37612;51.768;21.590;2022-08-01T00:57:00;99560.02;;;14.64;100.00
51528;BME280;37612;51.768;21.590;2022-08-01T01:01:02;99556.64;;;14.60;100.00
51528;BME280;37612;51.768;21.590;2022-08-01T01:05:03;99561.28;;;14.59;100.00
51528;BME280;37612;51.768;21.590;2022-08-01T01:14:04;99568.18;;;14.65;100.00
51528;BME280;37612;51.768;21.590;2022-08-01T01:18:12;99569.07;;;14.71;100.00
51528;BME280;37612;51.768;21.590;2022-08-01T01:22:34;99564.27;;;14.73;100.00
51528;BME280;37612;51.768;21.590;2022-08-01T01:30:50;99565.38;;;14.82;100.00
51528;BME280;37612;51.768;21.590;2022-08-01T01:34:54;99565.04;;;14.84;100.00
51528;BME280;37612;51.768;21.590;2022-08-01T01:38:56;99566.52;;;14.81;100.00
51528;BME280;37612;51.768;21.590;2022-08-01T01:42:57;99566.02;;;14.79;100.00
51528;BME280;37612;51.768;21.590;2022-08-01T01:46:59;99572.91;;;14.78;100.00
51528;BME280;37612;51.768;21.590;2022-08-01T01:51:01;99573.23;;;14.82;100.00
51528;BME280;37612;51.768;21.590;2022-08-01T01:55:05;99576.90;;;14.81;100.00
51528;BME280;37612;51.768;21.590;2022-08-01T01:59:07;99577.45;;;14.84;100.00
51528;BME280;37612;51.768;21.590;2022-08-01T02:03:11;99578.83;;;14.86;100.00
51528;BME280;37612;51.768;21.590;2022-08-01T02:07:24;99578.21;;;14.84;100.00
51528;BME280;37612;51.768;21.590;2022-08-01T02:11:26;99574.79;;;14.86;100.00
51528;BME280;37612;51.768;21.590;2022-08-01T02:15:30;99573.34;;;14.87;100.00
51528;BME280;37612;51.768;21.590;2022-08-01T02:19:33;99571.73;;;14.86;100.00
51528;BME280;37612;51.768;21.590;2022-08-01T02:23:37;99568.76;;;14.83;100.00
51528;BME280;37612;51.768;21.590;2022-08-01T02:27:47;99576.65;;;14.84;100.00
51528;BME280;37612;51.768;21.590;2022-08-01T02:31:53;99572.36;;;14.82;100.00
51528;BME280;37612;51.768;21.590;2022-08-01T02:35:58;99571.83;;;14.83;100.00
51528;BME280;37612;51.768;21.590;2022-08-01T02:40:01;99574.35;;;14.87;100.00
51528;BME280;37612;51.768;21.590;2022-08-01T02:44:05;99578.13;;;14.86;100.00
51528;BME280;37612;51.768;21.590;2022-08-01T02:48:13;99581.48;;;14.88;100.00
51528;BME280;37612;51.768;21.590;2022-08-01T02:52:16;99584.67;;;14.87;100.00
51528;BME280;37612;51.768;21.590;2022-08-01T02:56:19;99585.92;;;14.85;100.00
51528;BME280;37612;51.768;21.590;2022-08-01T03:00:34;99588.91;;;14.84;100.00
51528;BME280;37612;51.768;21.590;2022-08-01T03:04:55;99594.70;;;14.80;100.00
51528;BME280;37612;51.768;21.590;2022-08-01T03:09:00;99595.28;;;14.78;100.00
51528;BME280;37612;51.768;21.590;2022-08-01T03:13:03;99591.69;;;14.76;100.00
51528;BME280;37612;51.768;21.590;2022-08-01T03:17:06;99592.70;;;14.72;100.00
51528;BME280;37612;51.768;21.590;2022-08-01T03:21:10;99596.02;;;14.69;100.00
51528;BME280;37612;51.768;21.590;2022-08-01T03:25:13;99591.94;;;14.69;100.00
51528;BME280;37612;51.768;21.590;2022-08-01T03:29:19;99591.00;;;14.70;100.00
51528;BME280;37612;51.768;21.590;2022-08-01T03:33:22;99590.77;;;14.68;100.00
51528;BME280;37612;51.768;21.590;2022-08-01T03:37:34;99595.35;;;14.67;100.00
51528;BME280;37612;51.768;21.590;2022-08-01T03:41:40;99599.02;;;14.65;100.00
51528;BME280;37612;51.768;21.590;2022-08-01T03:45:48;99602.16;;;14.63;100.00
51528;BME280;37612;51.768;21.590;2022-08-01T03:49:50;99607.46;;;14.64;100.00
51528;BME280;37612;51.768;21.590;2022-08-01T03:53:53;99606.90;;;14.65;100.00
51528;BME280;37612;51.768;21.590;2022-08-01T03:57:56;99609.90;;;14.67;100.00
51528;BME280;37612;51.768;21.590;2022-08-01T04:01:57;99609.40;;;14.69;100.00
51528;BME280;37612;51.768;21.590;2022-08-01T04:05:59;99616.34;;;14.69;100.00
51528;BME280;37612;51.768;21.590;2022-08-01T04:10:01;99618.54;;;14.73;100.00
51528;BME280;37612;51.768;21.590;2022-08-01T04:14:02;99626.58;;;14.75;100.00
51528;BME280;37612;51.768;21.590;2022-08-01T04:18:04;99624.21;;;14.75;100.00
51528;BME280;37612;51.768;21.590;2022-08-01T04:22:05;99625.05;;;14.73;100.00
51528;BME280;37612;51.768;21.590;2022-08-01T04:26:07;99627.73;;;14.72;100.00
51528;BME280;37612;51.768;21.590;2022-08-01T04:30:10;99633.58;;;14.74;100.00
51528;BME280;37612;51.768;21.590;2022-08-01T04:34:12;99642.92;;;14.74;100.00
51528;BME280;37612;51.768;21.590;2022-08-01T04:38:19;99641.69;;;14.75;100.00
51528;BME280;37612;51.768;21.590;2022-08-01T04:42:21;99642.59;;;14.79;100.00
51528;BME280;37612;51.768;21.590;2022-08-01T04:46:23;99645.08;;;14.79;100.00
51528;BME280;37612;51.768;21.590;2022-08-01T04:50:24;99642.58;;;14.78;100.00
51528;BME280;37612;51.768;21.590;2022-08-01T04:54:27;99641.23;;;14.82;100.00
51528;BME280;37612;51.768;21.590;2022-08-01T04:58:28;99643.13;;;14.89;100.00
51528;BME280;37612;51.768;21.590;2022-08-01T05:02:29;99647.29;;;14.96;100.00
51528;BME280;37612;51.768;21.590;2022-08-01T05:06:31;99651.76;;;15.04;100.00
51528;BME280;37612;51.768;21.590;2022-08-01T05:10:32;99655.48;;;15.07;100.00
51528;BME280;37612;51.768;21.590;2022-08-01T05:14:34;99659.34;;;15.08;100.00
51528;BME280;37612;51.768;21.590;2022-08-01T05:18:35;99655.69;;;15.05;100.00
51528;BME280;37612;51.768;21.590;2022-08-01T05:22:37;99656.58;;;15.09;100.00
51528;BME280;37612;51.768;21.590;2022-08-01T05:26:38;99657.87;;;15.10;100.00
51528;BME280;37612;51.768;21.590;2022-08-01T05:30:40;99660.21;;;15.08;100.00
51528;BME280;37612;51.768;21.590;2022-08-01T05:34:41;99661.48;;;15.09;100.00
51528;BME280;37612;51.768;21.590;2022-08-01T05:38:42;99662.29;;;15.09;100.00
51528;BME280;37612;51.768;21.590;2022-08-01T05:42:44;99667.20;;;15.11;100.00
51528;BME280;37612;51.768;21.590;2022-08-01T05:46:45;99669.91;;;15.18;100.00
51528;BME280;37612;51.768;21.590;2022-08-01T05:50:47;99676.26;;;15.19;100.00
51528;BME280;37612;51.768;21.590;2022-08-01T05:54:48;99676.95;;;15.23;100.00
51528;BME280;37612;51.768;21.590;2022-08-01T05:58:50;99677.23;;;15.27;100.00
51528;BME280;37612;51.768;21.590;2022-08-01T06:02:51;99677.17;;;15.30;100.00
51528;BME280;37612;51.768;21.590;2022-08-01T06:06:52;99682.25;;;15.41;100.00
51528;BME280;37612;51.768;21.590;2022-08-01T06:10:54;99681.10;;;15.54;100.00
51528;BME280;37612;51.768;21.590;2022-08-01T06:14:55;99682.40;;;15.57;100.00
51528;BME280;37612;51.768;21.590;2022-08-01T06:18:56;99683.95;;;15.62;100.00
51528;BME280;37612;51.768;21.590;2022-08-01T06:22:57;99689.94;;;15.66;100.00
51528;BME280;37612;51.768;21.590;2022-08-01T06:26:58;99689.80;;;15.79;100.00
51528;BME280;37612;51.768;21.590;2022-08-01T06:30:59;99691.47;;;15.83;100.00
51528;BME280;37612;51.768;21.590;2022-08-01T06:35:00;99695.66;;;15.86;100.00
51528;BME280;37612;51.768;21.590;2022-08-01T06:39:02;99697.23;;;15.91;100.00
51528;BME280;37612;51.768;21.590;2022-08-01T06:43:03;99702.15;;;16.03;100.00
51528;BME280;37612;51.768;21.590;2022-08-01T06:47:04;99707.95;;;16.10;100.00
51528;BME280;37612;51.768;21.590;2022-08-01T06:51:05;99706.91;;;16.14;100.00
51528;BME280;37612;51.768;21.590;2022-08-01T06:55:10;99709.23;;;16.17;99.95
51528;BME280;37612;51.768;21.590;2022-08-01T06:59:11;99706.55;;;16.33;99.60
51528;BME280;37612;51.768;21.590;2022-08-01T07:03:12;99701.77;;;16.46;99.02
51528;BME280;37612;51.768;21.590;2022-08-01T07:07:14;99698.73;;;16.52;98.90
51528;BME280;37612;51.768;21.590;2022-08-01T07:11:15;99691.42;;;16.82;98.04
51528;BME280;37612;51.768;21.590;2022-08-01T07:15:16;99696.81;;;17.12;96.53
51528;BME280;37612;51.768;21.590;2022-08-01T07:19:18;99695.29;;;17.33;96.63
51528;BME280;37612;51.768;21.590;2022-08-01T07:23:20;99694.95;;;17.44;95.64
51528;BME280;37612;51.768;21.590;2022-08-01T07:27:21;99695.34;;;17.43;94.39
51528;BME280;37612;51.768;21.590;2022-08-01T07:31:22;99693.80;;;17.45;94.38
51528;BME280;37612;51.768;21.590;2022-08-01T07:35:24;99692.44;;;17.51;93.95
51528;BME280;37612;51.768;21.590;2022-08-01T07:39:25;99693.95;;;17.53;92.91
51528;BME280;37612;51.768;21.590;2022-08-01T07:43:26;99693.50;;;17.58;93.17
51528;BME280;37612;51.768;21.590;2022-08-01T07:47:27;99691.58;;;17.72;93.36
51528;BME280;37612;51.768;21.590;2022-08-01T07:51:28;99695.99;;;17.86;92.57
51528;BME280;37612;51.768;21.590;2022-08-01T07:55:30;99694.33;;;17.96;92.18
51528;BME280;37612;51.768;21.590;2022-08-01T07:59:31;99693.29;;;18.23;92.48
51528;BME280;37612;51.768;21.590;2022-08-01T08:03:32;99692.19;;;18.53;91.74
51528;BME280;37612;51.768;21.590;2022-08-01T08:07:34;99692.48;;;18.86;90.31
51528;BME280;37612;51.768;21.590;2022-08-01T08:11:35;99694.73;;;18.95;89.11
51528;BME280;37612;51.768;21.590;2022-08-01T08:15:36;99697.56;;;19.05;87.96
51528;BME280;37612;51.768;21.590;2022-08-01T08:19:37;99700.52;;;19.16;86.40
51528;BME280;37612;51.768;21.590;2022-08-01T08:23:39;99701.65;;;19.30;86.01
51528;BME280;37612;51.768;21.590;2022-08-01T08:27:59;99705.27;;;19.29;83.18
51528;BME280;37612;51.768;21.590;2022-08-01T08:32:01;99707.94;;;19.44;83.46
51528;BME280;37612;51.768;21.590;2022-08-01T08:36:02;99708.68;;;19.68;81.57
51528;BME280;37612;51.768;21.590;2022-08-01T08:40:04;99708.18;;;19.91;82.57
51528;BME280;37612;51.768;21.590;2022-08-01T08:44:08;99712.83;;;20.09;79.57
51528;BME280;37612;51.768;21.590;2022-08-01T08:48:09;99712.16;;;20.19;80.83
51528;BME280;37612;51.768;21.590;2022-08-01T08:52:12;99713.23;;;20.51;80.99
51528;BME280;37612;51.768;21.590;2022-08-01T08:56:15;99712.54;;;20.71;79.16
51528;BME280;37612;51.768;21.590;2022-08-01T09:00:16;99709.62;;;20.68;77.90
51528;BME280;37612;51.768;21.590;2022-08-01T09:04:20;99715.77;;;20.78;76.91
51528;BME280;37612;51.768;21.590;2022-08-01T09:08:23;99720.39;;;20.84;76.47
51528;BME280;37612;51.768;21.590;2022-08-01T09:12:24;99726.48;;;21.02;76.10
51528;BME280;37612;51.768;21.590;2022-08-01T09:16:25;99721.59;;;21.10;75.09
51528;BME280;37612;51.768;21.590;2022-08-01T09:20:26;99725.99;;;21.17;71.83
51528;BME280;37612;51.768;21.590;2022-08-01T09:24:29;99729.71;;;21.00;70.60
51528;BME280;37612;51.768;21.590;2022-08-01T09:28:31;99730.80;;;21.11;71.32
51528;BME280;37612;51.768;21.590;2022-08-01T09:32:33;99734.01;;;21.22;70.71
51528;BME280;37612;51.768;21.590;2022-08-01T09:36:59;99734.27;;;21.30;70.52
51528;BME280;37612;51.768;21.590;2022-08-01T09:41:00;99743.36;;;21.33;68.91
51528;BME280;37612;51.768;21.590;2022-08-01T09:45:02;99746.36;;;21.33;70.61
51528;BME280;37612;51.768;21.590;2022-08-01T09:49:05;99738.48;;;21.50;70.19
51528;BME280;37612;51.768;21.590;2022-08-01T09:53:06;99736.46;;;21.50;67.98
51528;BME280;37612;51.768;21.590;2022-08-01T09:57:14;99746.39;;;21.48;67.78
51528;BME280;37612;51.768;21.590;2022-08-01T10:01:15;99741.89;;;21.56;67.99
51528;BME280;37612;51.768;21.590;2022-08-01T10:05:16;99738.04;;;21.63;67.49
51528;BME280;37612;51.768;21.590;2022-08-01T10:09:36;99739.10;;;21.61;66.43
51528;BME280;37612;51.768;21.590;2022-08-01T10:13:40;99738.07;;;21.71;66.98
51528;BME280;37612;51.768;21.590;2022-08-01T10:17:46;99738.83;;;21.89;66.20
51528;BME280;37612;51.768;21.590;2022-08-01T10:21:48;99733.48;;;22.00;66.24
51528;BME280;37612;51.768;21.590;2022-08-01T10:25:53;99737.84;;;21.98;64.25
51528;BME280;37612;51.768;21.590;2022-08-01T10:29:57;99734.59;;;21.98;64.40
51528;BME280;37612;51.768;21.590;2022-08-01T10:34:04;99732.94;;;22.08;64.24
51528;BME280;37612;51.768;21.590;2022-08-01T10:38:06;99729.91;;;22.11;62.39
51528;BME280;37612;51.768;21.590;2022-08-01T10:42:10;99724.58;;;22.13;62.42
51528;BME280;37612;51.768;21.590;2022-08-01T10:46:12;99724.87;;;22.19;62.53
51528;BME280;37612;51.768;21.590;2022-08-01T10:54:39;99723.42;;;22.29;61.24
51528;BME280;37612;51.768;21.590;2022-08-01T10:58:42;99724.06;;;22.52;62.26
51528;BME280;37612;51.768;21.590;2022-08-01T11:02:57;99720.52;;;22.76;62.49
51528;BME280;37612;51.768;21.590;2022-08-01T11:07:13;99723.39;;;22.88;60.92
51528;BME280;37612;51.768;21.590;2022-08-01T11:11:17;99723.63;;;22.85;60.48
51528;BME280;37612;51.768;21.590;2022-08-01T11:15:21;99724.66;;;22.98;58.34
51528;BME280;37612;51.768;21.590;2022-08-01T11:20:03;99726.61;;;22.94;58.04
51528;BME280;37612;51.768;21.590;2022-08-01T11:24:04;99721.63;;;22.91;58.22
51528;BME280;37612;51.768;21.590;2022-08-01T11:32:28;99728.20;;;23.23;58.62
51528;BME280;37612;51.768;21.590;2022-08-01T11:36:29;99732.40;;;23.11;54.43
51528;BME280;37612;51.768;21.590;2022-08-01T11:40:31;99724.56;;;23.02;55.78
51528;BME280;37612;51.768;21.590;2022-08-01T11:44:48;99718.08;;;23.06;55.60
51528;BME280;37612;51.768;21.590;2022-08-01T11:49:23;99725.30;;;23.00;55.54
51528;BME280;37612;51.768;21.590;2022-08-01T11:53:24;99727.11;;;22.95;56.41
51528;BME280;37612;51.768;21.590;2022-08-01T11:57:30;99723.66;;;22.98;56.46
51528;BME280;37612;51.768;21.590;2022-08-01T12:01:31;99728.45;;;23.06;56.41
51528;BME280;37612;51.768;21.590;2022-08-01T12:05:34;99724.50;;;23.15;56.15
51528;BME280;37612;51.768;21.590;2022-08-01T12:09:37;99723.18;;;23.13;55.09
51528;BME280;37612;51.768;21.590;2022-08-01T12:13:40;99722.94;;;23.09;55.04
51528;BME280;37612;51.768;21.590;2022-08-01T12:17:47;99723.23;;;23.24;55.90
51528;BME280;37612;51.768;21.590;2022-08-01T12:22:14;99720.70;;;23.28;54.77
51528;BME280;37612;51.768;21.590;2022-08-01T12:26:15;99726.67;;;23.12;52.65
51528;BME280;37612;51.768;21.590;2022-08-01T12:30:20;99721.10;;;23.16;51.62
51528;BME280;37612;51.768;21.590;2022-08-01T12:34:27;99717.55;;;23.14;51.78
51528;BME280;37612;51.768;21.590;2022-08-01T12:38:30;99713.73;;;23.31;52.76
51528;BME280;37612;51.768;21.590;2022-08-01T12:42:37;99711.92;;;23.39;51.78
51528;BME280;37612;51.768;21.590;2022-08-01T12:46:38;99709.58;;;23.51;52.45
51528;BME280;37612;51.768;21.590;2022-08-01T12:50:45;99710.81;;;23.59;52.53
51528;BME280;37612;51.768;21.590;2022-08-01T12:59:19;99700.60;;;23.71;52.54
51528;BME280;37612;51.768;21.590;2022-08-01T13:03:21;99698.05;;;23.80;53.45
51528;BME280;37612;51.768;21.590;2022-08-01T13:07:22;99703.55;;;23.87;51.68
51528;BME280;37612;51.768;21.590;2022-08-01T13:11:35;99706.35;;;23.87;51.66
51528;BME280;37612;51.768;21.590;2022-08-01T13:15:38;99707.17;;;23.88;51.10
51528;BME280;37612;51.768;21.590;2022-08-01T13:19:44;99708.17;;;23.88;51.35
51528;BME280;37612;51.768;21.590;2022-08-01T13:24:05;99701.64;;;23.83;51.57
51528;BME280;37612;51.768;21.590;2022-08-01T13:28:31;99704.14;;;23.91;52.15
51528;BME280;37612;51.768;21.590;2022-08-01T13:32:33;99709.09;;;23.84;51.54
51528;BME280;37612;51.768;21.590;2022-08-01T13:36:35;99708.39;;;23.87;51.99
51528;BME280;37612;51.768;21.590;2022-08-01T13:40:36;99706.61;;;23.83;51.80
51528;BME280;37612;51.768;21.590;2022-08-01T13:44:37;99711.92;;;23.91;52.51
51528;BME280;37612;51.768;21.590;2022-08-01T13:48:38;99712.83;;;23.93;52.10
51528;BME280;37612;51.768;21.590;2022-08-01T13:52:40;99709.04;;;23.80;52.35
51528;BME280;37612;51.768;21.590;2022-08-01T13:56:41;99714.61;;;23.79;52.68
51528;BME280;37612;51.768;21.590;2022-08-01T14:00:42;99712.20;;;23.88;52.64
51528;BME280;37612;51.768;21.590;2022-08-01T14:04:43;99717.13;;;23.99;52.86
51528;BME280;37612;51.768;21.590;2022-08-01T14:08:45;99722.23;;;24.20;52.51
51528;BME280;37612;51.768;21.590;2022-08-01T14:12:49;99724.08;;;24.34;52.57
51528;BME280;37612;51.768;21.590;2022-08-01T14:16:50;99726.25;;;24.45;52.04
51528;BME280;37612;51.768;21.590;2022-08-01T14:20:52;99725.84;;;24.56;52.59
51528;BME280;37612;51.768;21.590;2022-08-01T14:24:54;99728.11;;;24.54;51.83
51528;BME280;37612;51.768;21.590;2022-08-01T14:28:55;99730.18;;;24.35;52.30
51528;BME280;37612;51.768;21.590;2022-08-01T14:32:56;99733.04;;;24.40;52.72
51528;BME280;37612;51.768;21.590;2022-08-01T14:36:57;99733.83;;;24.40;53.02
51528;BME280;37612;51.768;21.590;2022-08-01T14:40:59;99737.09;;;24.37;52.33
51528;BME280;37612;51.768;21.590;2022-08-01T14:45:00;99736.73;;;24.39;52.44
51528;BME280;37612;51.768;21.590;2022-08-01T14:49:01;99739.66;;;24.42;52.21
51528;BME280;37612;51.768;21.590;2022-08-01T14:53:02;99740.16;;;24.52;52.01
51528;BME280;37612;51.768;21.590;2022-08-01T14:57:03;99742.66;;;24.65;51.94
51528;BME280;37612;51.768;21.590;2022-08-01T15:01:05;99742.71;;;24.76;51.86
51528;BME280;37612;51.768;21.590;2022-08-01T15:05:07;99739.46;;;24.90;51.76
51528;BME280;37612;51.768;21.590;2022-08-01T15:09:08;99742.98;;;24.97;51.59
51528;BME280;37612;51.768;21.590;2022-08-01T15:13:09;99743.17;;;24.99;51.66
51528;BME280;37612;51.768;21.590;2022-08-01T15:17:10;99743.59;;;25.05;51.77
51528;BME280;37612;51.768;21.590;2022-08-01T15:21:11;99742.97;;;25.18;51.89
51528;BME280;37612;51.768;21.590;2022-08-01T15:25:13;99749.89;;;25.23;51.75
51528;BME280;37612;51.768;21.590;2022-08-01T15:29:14;99744.13;;;25.23;51.70
51528;BME280;37612;51.768;21.590;2022-08-01T15:33:16;99743.99;;;25.28;51.25
51528;BME280;37612;51.768;21.590;2022-08-01T15:37:18;99748.84;;;25.31;51.34
51528;BME280;37612;51.768;21.590;2022-08-01T15:41:19;99742.72;;;26.52;50.27
51528;BME280;37612;51.768;21.590;2022-08-01T15:45:20;99743.66;;;28.47;48.29
51528;BME280;37612;51.768;21.590;2022-08-01T15:49:22;99742.45;;;29.50;46.40
51528;BME280;37612;51.768;21.590;2022-08-01T15:53:23;99735.79;;;30.97;44.06
51528;BME280;37612;51.768;21.590;2022-08-01T15:57:24;99734.80;;;31.87;44.12
51528;BME280;37612;51.768;21.590;2022-08-01T16:01:25;99738.66;;;33.02;41.34
51528;BME280;37612;51.768;21.590;2022-08-01T16:05:27;99738.59;;;33.98;39.74
51528;BME280;37612;51.768;21.590;2022-08-01T16:09:28;99736.05;;;34.38;39.10
51528;BME280;37612;51.768;21.590;2022-08-01T16:13:29;99732.89;;;34.84;37.79
51528;BME280;37612;51.768;21.590;2022-08-01T16:17:30;99734.63;;;34.94;36.87
51528;BME280;37612;51.768;21.590;2022-08-01T16:21:31;99732.81;;;34.93;36.78
51528;BME280;37612;51.768;21.590;2022-08-01T16:25:33;99735.60;;;35.10;35.62
51528;BME280;37612;51.768;21.590;2022-08-01T16:29:34;99738.09;;;35.18;34.83
51528;BME280;37612;51.768;21.590;2022-08-01T16:33:36;99739.86;;;34.88;33.72
51528;BME280;37612;51.768;21.590;2022-08-01T16:37:37;99737.55;;;34.49;34.30
51528;BME280;37612;51.768;21.590;2022-08-01T16:41:38;99746.42;;;34.55;34.75
51528;BME280;37612;51.768;21.590;2022-08-01T16:45:39;99748.34;;;34.43;34.11
51528;BME280;37612;51.768;21.590;2022-08-01T16:49:42;99747.57;;;33.36;35.24
51528;BME280;37612;51.768;21.590;2022-08-01T16:53:43;99747.95;;;33.47;35.30
51528;BME280;37612;51.768;21.590;2022-08-01T16:57:44;99747.39;;;32.51;36.13
51528;BME280;37612;51.768;21.590;2022-08-01T17:01:46;99751.26;;;30.58;37.46
51528;BME280;37612;51.768;21.590;2022-08-01T17:05:47;99751.02;;;28.98;39.31
51528;BME280;37612;51.768;21.590;2022-08-01T17:09:48;99752.30;;;27.87;40.70
51528;BME280;37612;51.768;21.590;2022-08-01T17:13:49;99755.73;;;26.90;42.98
51528;BME280;37612;51.768;21.590;2022-08-01T17:17:50;99755.92;;;26.18;44.48
51528;BME280;37612;51.768;21.590;2022-08-01T17:21:54;99760.67;;;25.58;45.72
51528;BME280;37612;51.768;21.590;2022-08-01T17:25:57;99764.97;;;25.02;46.74
51528;BME280;37612;51.768;21.590;2022-08-01T17:29:59;99771.66;;;24.41;47.46
51528;BME280;37612;51.768;21.590;2022-08-01T17:34:00;99766.80;;;23.95;48.36
51528;BME280;37612;51.768;21.590;2022-08-01T17:38:01;99768.27;;;23.59;49.46
51528;BME280;37612;51.768;21.590;2022-08-01T17:42:03;99771.84;;;23.26;50.71
51528;BME280;37612;51.768;21.590;2022-08-01T17:46:04;99772.83;;;22.96;51.75
51528;BME280;37612;51.768;21.590;2022-08-01T17:50:07;99775.68;;;22.72;52.30
51528;BME280;37612;51.768;21.590;2022-08-01T17:54:09;99773.02;;;22.43;52.64
51528;BME280;37612;51.768;21.590;2022-08-01T17:58:10;99776.63;;;22.09;53.54
51528;BME280;37612;51.768;21.590;2022-08-01T18:02:14;99780.67;;;21.91;54.67
51528;BME280;37612;51.768;21.590;2022-08-01T18:06:16;99783.46;;;21.70;55.84
51528;BME280;37612;51.768;21.590;2022-08-01T18:10:17;99785.64;;;21.44;56.91
51528;BME280;37612;51.768;21.590;2022-08-01T18:14:18;99790.04;;;21.26;57.85
51528;BME280;37612;51.768;21.590;2022-08-01T18:18:20;99790.05;;;21.13;57.65
51528;BME280;37612;51.768;21.590;2022-08-01T18:22:21;99792.73;;;21.04;58.13
51528;BME280;37612;51.768;21.590;2022-08-01T18:26:22;99793.86;;;20.94;58.37
51528;BME280;37612;51.768;21.590;2022-08-01T18:30:24;99802.22;;;20.81;59.11
51528;BME280;37612;51.768;21.590;2022-08-01T18:34:25;99804.88;;;20.65;59.77
51528;BME280;37612;51.768;21.590;2022-08-01T18:38:26;99804.80;;;20.54;60.37
51528;BME280;37612;51.768;21.590;2022-08-01T18:42:27;99812.31;;;20.40;61.08
51528;BME280;37612;51.768;21.590;2022-08-01T18:46:28;99821.66;;;20.28;62.05
51528;BME280;37612;51.768;21.590;2022-08-01T18:50:29;99825.91;;;20.17;62.56
51528;BME280;37612;51.768;21.590;2022-08-01T18:54:30;99826.79;;;20.09;62.86
51528;BME280;37612;51.768;21.590;2022-08-01T18:58:32;99834.74;;;19.99;63.42
51528;BME280;37612;51.768;21.590;2022-08-01T19:02:33;99838.94;;;19.85;63.56
51528;BME280;37612;51.768;21.590;2022-08-01T19:06:35;99842.90;;;19.72;63.98
51528;BME280;37612;51.768;21.590;2022-08-01T19:10:38;99841.05;;;19.64;64.20
51528;BME280;37612;51.768;21.590;2022-08-01T19:14:39;99844.64;;;19.57;64.62
51528;BME280;37612;51.768;21.590;2022-08-01T19:18:41;99846.64;;;19.60;65.16
51528;BME280;37612;51.768;21.590;2022-08-01T19:22:42;99849.74;;;19.59;65.88
51528;BME280;37612;51.768;21.590;2022-08-01T19:26:47;99852.14;;;19.54;66.54
51528;BME280;37612;51.768;21.590;2022-08-01T19:30:50;99853.30;;;19.47;66.86
51528;BME280;37612;51.768;21.590;2022-08-01T19:35:09;99856.84;;;19.47;66.90
51528;BME280;37612;51.768;21.590;2022-08-01T19:39:11;99859.01;;;19.47;67.23
51528;BME280;37612;51.768;21.590;2022-08-01T19:43:15;99864.25;;;19.47;67.48
51528;BME280;37612;51.768;21.590;2022-08-01T19:47:17;99867.27;;;19.45;67.76
51528;BME280;37612;51.768;21.590;2022-08-01T19:51:20;99863.27;;;19.41;68.36
51528;BME280;37612;51.768;21.590;2022-08-01T19:55:23;99861.11;;;19.41;68.86
51528;BME280;37612;51.768;21.590;2022-08-01T19:59:26;99859.48;;;19.41;69.27
51528;BME280;37612;51.768;21.590;2022-08-01T20:03:29;99860.69;;;19.39;69.51
51528;BME280;37612;51.768;21.590;2022-08-01T20:07:33;99860.92;;;19.32;69.50
51528;BME280;37612;51.768;21.590;2022-08-01T20:11:36;99864.15;;;19.27;69.38
51528;BME280;37612;51.768;21.590;2022-08-01T20:15:37;99861.98;;;19.25;69.40
51528;BME280;37612;51.768;21.590;2022-08-01T20:19:39;99860.17;;;19.30;69.85
51528;BME280;37612;51.768;21.590;2022-08-01T20:23:42;99856.45;;;19.30;70.19
51528;BME280;37612;51.768;21.590;2022-08-01T20:27:45;99855.59;;;19.23;70.54
51528;BME280;37612;51.768;21.590;2022-08-01T20:31:49;99855.05;;;19.17;70.74
51528;BME280;37612;51.768;21.590;2022-08-01T20:35:52;99860.75;;;19.12;70.72
51528;BME280;37612;51.768;21.590;2022-08-01T20:39:56;99860.01;;;19.14;71.18
51528;BME280;37612;51.768;21.590;2022-08-01T20:43:59;99862.77;;;19.15;71.56
51528;BME280;37612;51.768;21.590;2022-08-01T20:48:00;99862.93;;;19.15;71.81
51528;BME280;37612;51.768;21.590;2022-08-01T20:52:01;99860.11;;;19.14;71.82
51528;BME280;37612;51.768;21.590;2022-08-01T20:56:06;99856.61;;;19.14;71.87
51528;BME280;37612;51.768;21.590;2022-08-01T21:00:09;99859.91;;;19.15;72.08
51528;BME280;37612;51.768;21.590;2022-08-01T21:08:50;99855.56;;;19.08;72.94
51528;BME280;37612;51.768;21.590;2022-08-01T21:17:13;99858.46;;;19.03;73.35
51528;BME280;37612;51.768;21.590;2022-08-01T21:21:17;99860.23;;;18.95;73.54
51528;BME280;37612;51.768;21.590;2022-08-01T21:25:24;99861.95;;;18.91;73.86
51528;BME280;37612;51.768;21.590;2022-08-01T21:29:26;99867.84;;;18.87;74.24
51528;BME280;37612;51.768;21.590;2022-08-01T21:33:28;99868.29;;;18.83;74.72
51528;BME280;37612;51.768;21.590;2022-08-01T21:37:29;99872.54;;;18.85;74.92